sensor_id;sensor_type;location;lat;lon;timestamp;pressure;altitude;pressure_sealevel;temperature;humidity
48848;BME280;36611;51.638;5.784;2022-12-10T00:02:06;100748.06;;;4.42;55.30
48848;BME280;36611;51.638;5.784;2022-12-10T00:04:32;100754.31;;;4.41;55.27
48848;BME280;36611;51.638;5.784;2022-12-10T00:06:59;100746.41;;;4.40;54.86
48848;BME280;36611;51.638;5.784;2022-12-10T00:09:26;100747.34;;;4.39;55.29
48848;BME280;36611;51.638;5.784;2022-12-10T00:11:53;100747.41;;;4.37;55.05
48848;BME280;36611;51.638;5.784;2022-12-10T00:14:19;100752.72;;;4.37;55.15
48848;BME280;36611;51.638;5.784;2022-12-10T00:16:46;100751.00;;;4.36;55.07
48848;BME280;36611;51.638;5.784;2022-12-10T00:19:12;100755.53;;;4.34;54.96
48848;BME280;36611;51.638;5.784;2022-12-10T00:21:39;100752.09;;;4.32;54.99
48848;BME280;36611;51.638;5.784;2022-12-10T00:24:06;100756.59;;;4.30;54.96
48848;BME280;36611;51.638;5.784;2022-12-10T00:26:35;100753.16;;;4.28;55.15
48848;BME280;36611;51.638;5.784;2022-12-10T00:29:04;100754.16;;;4.26;54.96
48848;BME280;36611;51.638;5.784;2022-12-10T00:31:34;100751.56;;;4.24;54.96
48848;BME280;36611;51.638;5.784;2022-12-10T00:34:03;100756.97;;;4.23;54.92
48848;BME280;36611;51.638;5.784;2022-12-10T00:36:33;100757.97;;;4.20;55.05
48848;BME280;36611;51.638;5.784;2022-12-10T00:39:00;100760.78;;;4.17;54.82
48848;BME280;36611;51.638;5.784;2022-12-10T00:41:28;100764.44;;;4.14;55.10
48848;BME280;36611;51.638;5.784;2022-12-10T00:43:54;100766.44;;;4.09;54.76
48848;BME280;36611;51.638;5.784;2022-12-10T00:46:21;100764.84;;;4.05;54.94
48848;BME280;36611;51.638;5.784;2022-12-10T00:48:48;100757.22;;;3.98;54.77
48848;BME280;36611;51.638;5.784;2022-12-10T00:51:19;100756.84;;;3.87;54.71
48848;BME280;36611;51.638;5.784;2022-12-10T00:53:47;100742.13;;;3.79;54.83
48848;BME280;36611;51.638;5.784;2022-12-10T00:56:18;100753.81;;;3.75;54.77
48848;BME280;36611;51.638;5.784;2022-12-10T00:58:46;100753.88;;;3.74;54.87
48848;BME280;36611;51.638;5.784;2022-12-10T01:03:41;100751.28;;;3.72;54.97
48848;BME280;36611;51.638;5.784;2022-12-10T01:08:49;100751.41;;;3.69;54.92
48848;BME280;36611;51.638;5.784;2022-12-10T01:11:18;100756.84;;;3.66;54.90
48848;BME280;36611;51.638;5.784;2022-12-10T01:13:46;100752.47;;;3.65;54.81
48848;BME280;36611;51.638;5.784;2022-12-10T01:16:14;100757.84;;;3.64;54.83
48848;BME280;36611;51.638;5.784;2022-12-10T01:18:43;100756.13;;;3.63;54.94
48848;BME280;36611;51.638;5.784;2022-12-10T01:21:12;100766.75;;;3.63;54.86
48848;BME280;36611;51.638;5.784;2022-12-10T01:23:41;100757.91;;;3.62;54.90
48848;BME280;36611;51.638;5.784;2022-12-10T01:26:11;100764.16;;;3.61;54.94
48848;BME280;36611;51.638;5.784;2022-12-10T01:28:39;100768.66;;;3.59;54.87
48848;BME280;36611;51.638;5.784;2022-12-10T01:31:09;100775.78;;;3.59;55.00
48848;BME280;36611;51.638;5.784;2022-12-10T01:33:37;100768.78;;;3.56;54.57
48848;BME280;36611;51.638;5.784;2022-12-10T01:36:07;100765.34;;;3.54;54.94
48848;BME280;36611;51.638;5.784;2022-12-10T01:38:35;100768.94;;;3.53;54.92
48848;BME280;36611;51.638;5.784;2022-12-10T01:41:05;100776.09;;;3.51;54.91
48848;BME280;36611;51.638;5.784;2022-12-10T01:44:00;100777.09;;;3.48;54.87
48848;BME280;36611;51.638;5.784;2022-12-10T01:46:32;100779.81;;;3.47;54.66
48848;BME280;36611;51.638;5.784;2022-12-10T01:49:00;100779.94;;;3.44;54.99
48848;BME280;36611;51.638;5.784;2022-12-10T01:51:30;100779.16;;;3.42;54.86
48848;BME280;36611;51.638;5.784;2022-12-10T01:53:57;100781.94;;;3.39;54.98
48848;BME280;36611;51.638;5.784;2022-12-10T01:56:24;100777.69;;;3.35;55.00
48848;BME280;36611;51.638;5.784;2022-12-10T01:58:54;100784.78;;;3.34;54.84
48848;BME280;36611;51.638;5.784;2022-12-10T02:11:58;100781.72;;;3.23;54.77
48848;BME280;36611;51.638;5.784;2022-12-10T02:14:39;100775.81;;;3.16;54.98
48848;BME280;36611;51.638;5.784;2022-12-10T02:17:14;100772.41;;;3.13;54.93
48848;BME280;36611;51.638;5.784;2022-12-10T02:22:21;100777.19;;;3.05;54.90
48848;BME280;36611;51.638;5.784;2022-12-10T02:24:49;100777.25;;;3.03;55.11
48848;BME280;36611;51.638;5.784;2022-12-10T02:29:54;100768.47;;;3.01;55.11
48848;BME280;36611;51.638;5.784;2022-12-10T02:32:25;100768.53;;;3.00;55.16
48848;BME280;36611;51.638;5.784;2022-12-10T02:35:00;100767.69;;;2.99;55.09
48848;BME280;36611;51.638;5.784;2022-12-10T02:37:38;100773.84;;;3.00;55.17
48848;BME280;36611;51.638;5.784;2022-12-10T02:40:08;100784.53;;;2.98;55.09
48848;BME280;36611;51.638;5.784;2022-12-10T02:42:42;100774.81;;;2.97;55.13
48848;BME280;36611;51.638;5.784;2022-12-10T02:45:11;100768.63;;;2.97;55.09
48848;BME280;36611;51.638;5.784;2022-12-10T02:47:39;100775.78;;;2.95;55.08
48848;BME280;36611;51.638;5.784;2022-12-10T02:50:07;100775.84;;;2.93;55.06
48848;BME280;36611;51.638;5.784;2022-12-10T02:52:36;100777.59;;;2.94;55.05
48848;BME280;36611;51.638;5.784;2022-12-10T02:55:03;100781.97;;;2.95;54.99
48848;BME280;36611;51.638;5.784;2022-12-10T03:00:23;100788.06;;;2.97;55.29
48848;BME280;36611;51.638;5.784;2022-12-10T03:03:31;100786.25;;;2.99;55.37
48848;BME280;36611;51.638;5.784;2022-12-10T03:06:45;100783.59;;;2.99;55.20
48848;BME280;36611;51.638;5.784;2022-12-10T03:08:56;100783.53;;;3.01;55.24
48848;BME280;36611;51.638;5.784;2022-12-10T03:11:25;100782.69;;;3.00;55.31
48848;BME280;36611;51.638;5.784;2022-12-10T03:14:28;100785.66;;;2.91;55.26
48848;BME280;36611;51.638;5.784;2022-12-10T03:16:58;100785.91;;;2.85;55.16
48848;BME280;36611;51.638;5.784;2022-12-10T03:19:38;100779.13;;;2.78;55.40
48848;BME280;36611;51.638;5.784;2022-12-10T03:22:07;100778.31;;;2.76;55.42
48848;BME280;36611;51.638;5.784;2022-12-10T03:24:35;100770.38;;;2.76;55.46
48848;BME280;36611;51.638;5.784;2022-12-10T03:27:04;100763.34;;;2.75;55.57
48848;BME280;36611;51.638;5.784;2022-12-10T03:29:59;100763.34;;;2.75;55.66
48848;BME280;36611;51.638;5.784;2022-12-10T03:32:27;100773.88;;;2.76;55.49
48848;BME280;36611;51.638;5.784;2022-12-10T03:34:56;100770.38;;;2.76;55.80
48848;BME280;36611;51.638;5.784;2022-12-10T03:37:25;100778.22;;;2.79;55.85
48848;BME280;36611;51.638;5.784;2022-12-10T03:39:53;100778.09;;;2.82;55.88
48848;BME280;36611;51.638;5.784;2022-12-10T03:42:20;100778.75;;;2.87;55.90
48848;BME280;36611;51.638;5.784;2022-12-10T03:44:49;100780.50;;;2.88;55.80
48848;BME280;36611;51.638;5.784;2022-12-10T03:47:16;100783.06;;;2.90;55.78
48848;BME280;36611;51.638;5.784;2022-12-10T03:49:43;100781.28;;;2.90;55.86
48848;BME280;36611;51.638;5.784;2022-12-10T03:52:10;100789.19;;;2.92;55.83
48848;BME280;36611;51.638;5.784;2022-12-10T03:54:37;100789.25;;;2.90;55.77
48848;BME280;36611;51.638;5.784;2022-12-10T03:57:04;100791.97;;;2.88;55.76
48848;BME280;36611;51.638;5.784;2022-12-10T03:59:30;100789.31;;;2.88;55.67
48848;BME280;36611;51.638;5.784;2022-12-10T04:01:57;100791.22;;;2.85;55.70
48848;BME280;36611;51.638;5.784;2022-12-10T04:04:24;100790.47;;;2.81;55.77
48848;BME280;36611;51.638;5.784;2022-12-10T04:06:51;100809.09;;;2.80;55.62
48848;BME280;36611;51.638;5.784;2022-12-10T04:09:17;100809.09;;;2.80;55.89
48848;BME280;36611;51.638;5.784;2022-12-10T04:11:44;100812.63;;;2.80;55.65
48848;BME280;36611;51.638;5.784;2022-12-10T04:14:12;100805.66;;;2.78;55.71
48848;BME280;36611;51.638;5.784;2022-12-10T04:16:58;100797.75;;;2.76;55.89
48848;BME280;36611;51.638;5.784;2022-12-10T04:19:25;100799.47;;;2.77;55.92
48848;BME280;36611;51.638;5.784;2022-12-10T04:21:52;100801.16;;;2.80;56.10
48848;BME280;36611;51.638;5.784;2022-12-10T04:24:37;100798.38;;;2.83;56.11
48848;BME280;36611;51.638;5.784;2022-12-10T04:29:51;100802.06;;;2.79;56.15
48848;BME280;36611;51.638;5.784;2022-12-10T04:32:18;100802.00;;;2.80;56.21
48848;BME280;36611;51.638;5.784;2022-12-10T04:34:45;100805.41;;;2.84;56.30
48848;BME280;36611;51.638;5.784;2022-12-10T04:37:12;100807.88;;;2.88;56.51
48848;BME280;36611;51.638;5.784;2022-12-10T04:39:39;100810.34;;;2.93;56.49
48848;BME280;36611;51.638;5.784;2022-12-10T04:42:07;100806.63;;;2.97;56.63
48848;BME280;36611;51.638;5.784;2022-12-10T04:44:34;100804.81;;;2.99;56.67
48848;BME280;36611;51.638;5.784;2022-12-10T04:47:03;100795.06;;;3.00;56.74
48848;BME280;36611;51.638;5.784;2022-12-10T04:49:30;100807.41;;;3.01;56.74
48848;BME280;36611;51.638;5.784;2022-12-10T04:51:57;100805.63;;;3.01;56.71
48848;BME280;36611;51.638;5.784;2022-12-10T04:54:24;100805.44;;;3.06;56.88
48848;BME280;36611;51.638;5.784;2022-12-10T04:56:52;100810.63;;;3.09;56.84
48848;BME280;36611;51.638;5.784;2022-12-10T04:59:19;100808.75;;;3.11;56.91
48848;BME280;36611;51.638;5.784;2022-12-10T05:01:46;100806.06;;;3.12;56.78
48848;BME280;36611;51.638;5.784;2022-12-10T05:04:15;100811.34;;;3.12;56.84
48848;BME280;36611;51.638;5.784;2022-12-10T05:06:42;100819.38;;;3.11;56.89
48848;BME280;36611;51.638;5.784;2022-12-10T05:09:10;100802.47;;;3.13;56.94
48848;BME280;36611;51.638;5.784;2022-12-10T05:11:37;100810.31;;;3.16;56.96
48848;BME280;36611;51.638;5.784;2022-12-10T05:14:04;100814.69;;;3.17;57.23
48848;BME280;36611;51.638;5.784;2022-12-10T05:16:32;100816.41;;;3.18;57.02
48848;BME280;36611;51.638;5.784;2022-12-10T05:18:59;100817.16;;;3.22;57.20
48848;BME280;36611;51.638;5.784;2022-12-10T05:21:28;100819.63;;;3.27;57.19
48848;BME280;36611;51.638;5.784;2022-12-10T05:24:16;100818.75;;;3.26;57.15
48848;BME280;36611;51.638;5.784;2022-12-10T05:26:43;100813.69;;;3.20;57.11
48848;BME280;36611;51.638;5.784;2022-12-10T05:29:12;100818.19;;;3.18;56.91
48848;BME280;36611;51.638;5.784;2022-12-10T05:31:39;100807.53;;;3.19;57.32
48848;BME280;36611;51.638;5.784;2022-12-10T05:34:05;100810.84;;;3.25;57.20
48848;BME280;36611;51.638;5.784;2022-12-10T05:36:34;100821.34;;;3.28;57.33
48848;BME280;36611;51.638;5.784;2022-12-10T05:39:01;100822.25;;;3.27;57.40
48848;BME280;36611;51.638;5.784;2022-12-10T05:41:29;100824.06;;;3.26;57.38
48848;BME280;36611;51.638;5.784;2022-12-10T05:43:58;100824.91;;;3.27;57.42
48848;BME280;36611;51.638;5.784;2022-12-10T05:46:29;100822.13;;;3.30;57.40
48848;BME280;36611;51.638;5.784;2022-12-10T05:48:57;100828.13;;;3.35;57.64
48848;BME280;36611;51.638;5.784;2022-12-10T05:51:26;100829.66;;;3.40;57.58
48848;BME280;36611;51.638;5.784;2022-12-10T05:53:54;100829.47;;;3.45;57.55
48848;BME280;36611;51.638;5.784;2022-12-10T05:56:22;100823.97;;;3.49;57.69
48848;BME280;36611;51.638;5.784;2022-12-10T05:58:52;100826.47;;;3.53;57.68
48848;BME280;36611;51.638;5.784;2022-12-10T06:01:24;100823.75;;;3.54;57.61
48848;BME280;36611;51.638;5.784;2022-12-10T06:03:52;100823.03;;;3.50;57.54
48848;BME280;36611;51.638;5.784;2022-12-10T06:06:23;100832.78;;;3.50;57.50
48848;BME280;36611;51.638;5.784;2022-12-10T06:08:51;100832.78;;;3.50;57.55
48848;BME280;36611;51.638;5.784;2022-12-10T06:11:18;100820.31;;;3.52;57.68
48848;BME280;36611;51.638;5.784;2022-12-10T06:13:45;100821.16;;;3.53;57.74
48848;BME280;36611;51.638;5.784;2022-12-10T06:16:18;100826.47;;;3.53;57.65
48848;BME280;36611;51.638;5.784;2022-12-10T06:18:45;100822.03;;;3.53;57.75
48848;BME280;36611;51.638;5.784;2022-12-10T06:21:14;100829.06;;;3.54;57.67
48848;BME280;36611;51.638;5.784;2022-12-10T06:23:41;100823.69;;;3.56;57.78
48848;BME280;36611;51.638;5.784;2022-12-10T06:26:14;100824.44;;;3.59;57.86
48848;BME280;36611;51.638;5.784;2022-12-10T06:28:44;100824.28;;;3.62;57.80
48848;BME280;36611;51.638;5.784;2022-12-10T06:31:11;100829.47;;;3.65;57.84
48848;BME280;36611;51.638;5.784;2022-12-10T06:33:39;100833.84;;;3.66;57.95
48848;BME280;36611;51.638;5.784;2022-12-10T06:36:08;100829.47;;;3.65;57.90
48848;BME280;36611;51.638;5.784;2022-12-10T06:38:35;100828.63;;;3.65;57.92
48848;BME280;36611;51.638;5.784;2022-12-10T06:41:07;100833.84;;;3.66;58.02
48848;BME280;36611;51.638;5.784;2022-12-10T06:43:34;100827.63;;;3.67;58.03
48848;BME280;36611;51.638;5.784;2022-12-10T06:46:09;100832.06;;;3.67;58.09
48848;BME280;36611;51.638;5.784;2022-12-10T06:48:37;100846.16;;;3.69;58.06
48848;BME280;36611;51.638;5.784;2022-12-10T06:51:05;100844.34;;;3.69;58.06
48848;BME280;36611;51.638;5.784;2022-12-10T06:53:34;100843.41;;;3.70;58.03
48848;BME280;36611;51.638;5.784;2022-12-10T06:56:01;100840.75;;;3.70;58.05
48848;BME280;36611;51.638;5.784;2022-12-10T06:58:30;100841.81;;;3.66;58.04
48848;BME280;36611;51.638;5.784;2022-12-10T07:01:07;100849.13;;;3.61;58.01
48848;BME280;36611;51.638;5.784;2022-12-10T07:03:34;100850.84;;;3.62;58.03
48848;BME280;36611;51.638;5.784;2022-12-10T07:06:02;100850.84;;;3.62;58.24
48848;BME280;36611;51.638;5.784;2022-12-10T07:08:29;100849.13;;;3.61;58.21
48848;BME280;36611;51.638;5.784;2022-12-10T07:10:57;100858.03;;;3.60;58.11
48848;BME280;36611;51.638;5.784;2022-12-10T07:13:24;100857.09;;;3.61;58.15
48848;BME280;36611;51.638;5.784;2022-12-10T07:15:56;100859.63;;;3.64;58.19
48848;BME280;36611;51.638;5.784;2022-12-10T07:18:23;100861.28;;;3.67;58.27
48848;BME280;36611;51.638;5.784;2022-12-10T07:20:50;100864.66;;;3.70;58.39
48848;BME280;36611;51.638;5.784;2022-12-10T07:23:17;100868.94;;;3.74;58.28
48848;BME280;36611;51.638;5.784;2022-12-10T07:25:44;100869.69;;;3.78;58.50
48848;BME280;36611;51.638;5.784;2022-12-10T07:28:10;100871.34;;;3.80;58.40
48848;BME280;36611;51.638;5.784;2022-12-10T07:30:37;100881.97;;;3.80;58.21
48848;BME280;36611;51.638;5.784;2022-12-10T07:33:03;100889.00;;;3.81;58.33
48848;BME280;36611;51.638;5.784;2022-12-10T07:35:30;100888.09;;;3.82;58.31
48848;BME280;36611;51.638;5.784;2022-12-10T07:37:57;100895.31;;;3.79;58.30
48848;BME280;36611;51.638;5.784;2022-12-10T07:40:23;100890.06;;;3.77;58.31
48848;BME280;36611;51.638;5.784;2022-12-10T07:42:50;100887.47;;;3.76;58.32
48848;BME280;36611;51.638;5.784;2022-12-10T07:45:17;100891.19;;;3.72;58.30
48848;BME280;36611;51.638;5.784;2022-12-10T07:47:43;100892.16;;;3.69;58.30
48848;BME280;36611;51.638;5.784;2022-12-10T07:50:10;100889.50;;;3.69;58.35
48848;BME280;36611;51.638;5.784;2022-12-10T07:52:37;100885.91;;;3.70;58.43
48848;BME280;36611;51.638;5.784;2022-12-10T07:55:04;100900.03;;;3.72;58.40
48848;BME280;36611;51.638;5.784;2022-12-10T07:57:31;100897.38;;;3.72;58.47
48848;BME280;36611;51.638;5.784;2022-12-10T07:59:58;100899.09;;;3.73;58.58
48848;BME280;36611;51.638;5.784;2022-12-10T08:02:24;100902.56;;;3.75;58.45
48848;BME280;36611;51.638;5.784;2022-12-10T08:04:51;100908.72;;;3.76;58.42
48848;BME280;36611;51.638;5.784;2022-12-10T08:07:17;100908.88;;;3.73;58.37
48848;BME280;36611;51.638;5.784;2022-12-10T08:09:44;100907.06;;;3.73;58.44
48848;BME280;36611;51.638;5.784;2022-12-10T08:12:11;100906.19;;;3.73;58.37
48848;BME280;36611;51.638;5.784;2022-12-10T08:14:37;100907.88;;;3.75;58.42
48848;BME280;36611;51.638;5.784;2022-12-10T08:17:04;100909.47;;;3.79;58.52
48848;BME280;36611;51.638;5.784;2022-12-10T08:19:31;100911.19;;;3.80;58.49
48848;BME280;36611;51.638;5.784;2022-12-10T08:21:57;100920.09;;;3.79;58.57
48848;BME280;36611;51.638;5.784;2022-12-10T08:24:24;100921.09;;;3.77;58.54
48848;BME280;36611;51.638;5.784;2022-12-10T08:26:50;100923.81;;;3.75;58.55
48848;BME280;36611;51.638;5.784;2022-12-10T08:29:17;100930.91;;;3.75;58.54
48848;BME280;36611;51.638;5.784;2022-12-10T08:31:44;100933.56;;;3.75;58.54
48848;BME280;36611;51.638;5.784;2022-12-10T08:34:16;100932.69;;;3.74;58.53
48848;BME280;36611;51.638;5.784;2022-12-10T08:36:46;100943.31;;;3.74;58.64
48848;BME280;36611;51.638;5.784;2022-12-10T08:39:13;100952.16;;;3.75;58.70
48848;BME280;36611;51.638;5.784;2022-12-10T08:41:44;100944.94;;;3.78;58.68
48848;BME280;36611;51.638;5.784;2022-12-10T08:44:12;100950.97;;;3.82;58.97
48848;BME280;36611;51.638;5.784;2022-12-10T08:46:39;100954.31;;;3.87;58.73
48848;BME280;36611;51.638;5.784;2022-12-10T08:49:06;100940.88;;;3.90;58.51
48848;BME280;36611;51.638;5.784;2022-12-10T08:51:36;100948.00;;;3.90;58.84
48848;BME280;36611;51.638;5.784;2022-12-10T08:54:03;100951.44;;;3.92;58.86
48848;BME280;36611;51.638;5.784;2022-12-10T08:56:29;100957.63;;;3.92;58.85
48848;BME280;36611;51.638;5.784;2022-12-10T08:58:56;100950.53;;;3.93;58.66
48848;BME280;36611;51.638;5.784;2022-12-10T09:01:23;100952.19;;;3.95;58.85
48848;BME280;36611;51.638;5.784;2022-12-10T09:03:49;100948.66;;;3.95;58.67
48848;BME280;36611;51.638;5.784;2022-12-10T09:06:19;100947.94;;;3.91;58.80
48848;BME280;36611;51.638;5.784;2022-12-10T09:08:47;100954.19;;;3.90;58.80
48848;BME280;36611;51.638;5.784;2022-12-10T09:11:16;100955.16;;;3.88;58.71
48848;BME280;36611;51.638;5.784;2022-12-10T09:13:43;100956.03;;;3.88;58.86
48848;BME280;36611;51.638;5.784;2022-12-10T09:16:11;100951.44;;;3.92;58.96
48848;BME280;36611;51.638;5.784;2022-12-10T09:18:38;100947.06;;;3.91;58.84
48848;BME280;36611;51.638;5.784;2022-12-10T09:21:10;100946.28;;;3.89;58.91
48848;BME280;36611;51.638;5.784;2022-12-10T09:23:39;100952.44;;;3.89;58.90
48848;BME280;36611;51.638;5.784;2022-12-10T09:26:11;100958.56;;;3.91;58.87
48848;BME280;36611;51.638;5.784;2022-12-10T09:28:38;100972.66;;;3.93;58.97
48848;BME280;36611;51.638;5.784;2022-12-10T09:31:06;100962.81;;;3.95;59.01
48848;BME280;36611;51.638;5.784;2022-12-10T09:33:43;100971.59;;;3.97;58.78
48848;BME280;36611;51.638;5.784;2022-12-10T09:36:10;100966.09;;;4.02;58.92
48848;BME280;36611;51.638;5.784;2022-12-10T09:38:39;100972.94;;;4.07;59.07
48848;BME280;36611;51.638;5.784;2022-12-10T09:46:39;100978.72;;;4.17;59.00
48848;BME280;36611;51.638;5.784;2022-12-10T09:51:40;100991.81;;;4.22;59.05
48848;BME280;36611;51.638;5.784;2022-12-10T09:54:30;100984.69;;;4.22;58.99
48848;BME280;36611;51.638;5.784;2022-12-10T09:56:58;100980.97;;;4.26;59.02
48848;BME280;36611;51.638;5.784;2022-12-10T09:59:30;100987.91;;;4.30;59.03
48848;BME280;36611;51.638;5.784;2022-12-10T10:02:16;100982.44;;;4.33;58.93
48848;BME280;36611;51.638;5.784;2022-12-10T10:04:46;100983.44;;;4.31;58.87
48848;BME280;36611;51.638;5.784;2022-12-10T10:07:33;100989.81;;;4.27;59.08
48848;BME280;36611;51.638;5.784;2022-12-10T10:10:06;100985.44;;;4.26;59.07
48848;BME280;36611;51.638;5.784;2022-12-10T10:12:34;100983.78;;;4.23;59.09
48848;BME280;36611;51.638;5.784;2022-12-10T10:15:14;100989.09;;;4.23;58.87
48848;BME280;36611;51.638;5.784;2022-12-10T10:17:42;100985.63;;;4.21;58.99
48848;BME280;36611;51.638;5.784;2022-12-10T10:20:13;100993.47;;;4.24;59.00
48848;BME280;36611;51.638;5.784;2022-12-10T10:22:41;100989.75;;;4.28;59.08
48848;BME280;36611;51.638;5.784;2022-12-10T10:25:14;100997.59;;;4.31;59.11
48848;BME280;36611;51.638;5.784;2022-12-10T10:27:41;101000.06;;;4.36;58.87
48848;BME280;36611;51.638;5.784;2022-12-10T10:30:15;100991.97;;;4.39;59.19
48848;BME280;36611;51.638;5.784;2022-12-10T10:35:28;100998.94;;;4.41;59.15
48848;BME280;36611;51.638;5.784;2022-12-10T10:38:01;100997.34;;;4.37;59.00
48848;BME280;36611;51.638;5.784;2022-12-10T10:40:32;100987.69;;;4.35;59.14
48848;BME280;36611;51.638;5.784;2022-12-10T10:42:59;100991.22;;;4.35;59.10
48848;BME280;36611;51.638;5.784;2022-12-10T10:48:05;100993.75;;;4.38;59.11
48848;BME280;36611;51.638;5.784;2022-12-10T10:50:40;100989.28;;;4.39;59.13
48848;BME280;36611;51.638;5.784;2022-12-10T10:53:28;100990.16;;;4.39;59.13
48848;BME280;36611;51.638;5.784;2022-12-10T10:55:59;100992.69;;;4.42;59.07
48848;BME280;36611;51.638;5.784;2022-12-10T10:58:27;100989.16;;;4.42;59.11
48848;BME280;36611;51.638;5.784;2022-12-10T11:01:00;100990.03;;;4.42;58.83
48848;BME280;36611;51.638;5.784;2022-12-10T11:03:28;100992.63;;;4.44;59.18
48848;BME280;36611;51.638;5.784;2022-12-10T11:05:57;100987.38;;;4.42;59.18
48848;BME280;36611;51.638;5.784;2022-12-10T11:08:27;100992.63;;;4.44;59.18
48848;BME280;36611;51.638;5.784;2022-12-10T11:11:02;100989.03;;;4.45;59.30
48848;BME280;36611;51.638;5.784;2022-12-10T11:13:32;100984.53;;;4.47;59.26
48848;BME280;36611;51.638;5.784;2022-12-10T11:23:40;100979.16;;;4.49;59.24
48848;BME280;36611;51.638;5.784;2022-12-10T11:31:32;100984.34;;;4.52;58.98
48848;BME280;36611;51.638;5.784;2022-12-10T11:34:20;100983.53;;;4.50;59.17
48848;BME280;36611;51.638;5.784;2022-12-10T11:39:36;100982.81;;;4.46;59.09
48848;BME280;36611;51.638;5.784;2022-12-10T11:42:29;100981.13;;;4.43;59.16
48848;BME280;36611;51.638;5.784;2022-12-10T11:50:47;100988.66;;;4.54;59.19
48848;BME280;36611;51.638;5.784;2022-12-10T11:56:26;100979.63;;;4.58;59.29
48848;BME280;36611;51.638;5.784;2022-12-10T12:12:14;100985.97;;;4.74;59.33
48848;BME280;36611;51.638;5.784;2022-12-10T12:15:01;100977.94;;;4.76;59.28
48848;BME280;36611;51.638;5.784;2022-12-10T12:17:37;100983.31;;;4.74;59.18
48848;BME280;36611;51.638;5.784;2022-12-10T12:20:48;100981.66;;;4.72;59.15
48848;BME280;36611;51.638;5.784;2022-12-10T12:23:13;100976.41;;;4.70;59.20
48848;BME280;36611;51.638;5.784;2022-12-10T12:25:47;100978.28;;;4.68;59.12
48848;BME280;36611;51.638;5.784;2022-12-10T12:28:22;100978.34;;;4.67;59.25
48848;BME280;36611;51.638;5.784;2022-12-10T12:31:05;100967.84;;;4.64;59.26
48848;BME280;36611;51.638;5.784;2022-12-10T12:33:41;100971.28;;;4.66;59.30
48848;BME280;36611;51.638;5.784;2022-12-10T12:36:22;100970.22;;;4.70;59.03
48848;BME280;36611;51.638;5.784;2022-12-10T12:41:40;100971.81;;;4.74;59.42
48848;BME280;36611;51.638;5.784;2022-12-10T12:47:46;100978.06;;;4.73;59.31
48848;BME280;36611;51.638;5.784;2022-12-10T12:50:24;100974.53;;;4.72;59.29
48848;BME280;36611;51.638;5.784;2022-12-10T12:52:57;100975.41;;;4.73;59.33
48848;BME280;36611;51.638;5.784;2022-12-10T12:55:38;100975.41;;;4.73;59.31
48848;BME280;36611;51.638;5.784;2022-12-10T13:01:10;100978.78;;;4.76;59.27
48848;BME280;36611;51.638;5.784;2022-12-10T13:03:42;100981.38;;;4.78;59.30
48848;BME280;36611;51.638;5.784;2022-12-10T13:08:48;100989.22;;;4.81;59.31
48848;BME280;36611;51.638;5.784;2022-12-10T13:11:19;100999.81;;;4.83;59.25
48848;BME280;36611;51.638;5.784;2022-12-10T13:19:33;100981.25;;;4.81;59.36
48848;BME280;36611;51.638;5.784;2022-12-10T13:24:44;100977.66;;;4.82;59.48
48848;BME280;36611;51.638;5.784;2022-12-10T13:29:59;100970.75;;;4.78;59.31
48848;BME280;36611;51.638;5.784;2022-12-10T13:46:32;100981.25;;;4.81;59.46
48848;BME280;36611;51.638;5.784;2022-12-10T13:49:04;100989.22;;;4.81;59.54
48848;BME280;36611;51.638;5.784;2022-12-10T13:51:40;100982.31;;;4.77;59.43
48848;BME280;36611;51.638;5.784;2022-12-10T13:54:52;100983.03;;;4.81;59.63
48848;BME280;36611;51.638;5.784;2022-12-10T13:57:34;100988.81;;;4.90;59.76
48848;BME280;36611;51.638;5.784;2022-12-10T14:00:23;100995.59;;;4.97;59.82
48848;BME280;36611;51.638;5.784;2022-12-10T14:03:23;101003.28;;;5.03;59.77
48848;BME280;36611;51.638;5.784;2022-12-10T14:08:36;101008.47;;;5.06;59.52
48848;BME280;36611;51.638;5.784;2022-12-10T14:11:08;101010.34;;;5.04;59.53
48848;BME280;36611;51.638;5.784;2022-12-10T14:13:47;101012.28;;;5.01;59.58
48848;BME280;36611;51.638;5.784;2022-12-10T14:16:18;101014.22;;;4.97;59.44
48848;BME280;36611;51.638;5.784;2022-12-10T14:18:53;101009.69;;;4.99;59.59
48848;BME280;36611;51.638;5.784;2022-12-10T14:21:22;101012.34;;;4.99;59.37
48848;BME280;36611;51.638;5.784;2022-12-10T14:23:51;101014.22;;;4.97;59.50
48848;BME280;36611;51.638;5.784;2022-12-10T14:26:27;101017.66;;;4.99;59.54
48848;BME280;36611;51.638;5.784;2022-12-10T14:28:58;101018.53;;;5.00;59.52
48848;BME280;36611;51.638;5.784;2022-12-10T14:31:32;101027.31;;;5.02;59.49
48848;BME280;36611;51.638;5.784;2022-12-10T14:34:12;101020.19;;;5.02;59.57
48848;BME280;36611;51.638;5.784;2022-12-10T14:36:46;101006.94;;;5.01;59.57
48848;BME280;36611;51.638;5.784;2022-12-10T14:39:19;101015.00;;;4.99;59.53
48848;BME280;36611;51.638;5.784;2022-12-10T14:41:52;101014.13;;;4.99;59.43
48848;BME280;36611;51.638;5.784;2022-12-10T14:44:19;101017.66;;;4.99;59.56
48848;BME280;36611;51.638;5.784;2022-12-10T14:46:47;101016.88;;;4.97;59.44
48848;BME280;36611;51.638;5.784;2022-12-10T14:49:24;101030.31;;;4.94;59.55
48848;BME280;36611;51.638;5.784;2022-12-10T14:51:51;101020.59;;;4.93;59.52
48848;BME280;36611;51.638;5.784;2022-12-10T14:54:30;101017.88;;;4.95;59.68
48848;BME280;36611;51.638;5.784;2022-12-10T14:57:01;101022.25;;;4.96;59.56
48848;BME280;36611;51.638;5.784;2022-12-10T14:59:42;101019.59;;;4.96;59.54
48848;BME280;36611;51.638;5.784;2022-12-10T15:04:46;101009.69;;;4.99;59.54
48848;BME280;36611;51.638;5.784;2022-12-10T15:07:18;101012.28;;;5.01;59.65
48848;BME280;36611;51.638;5.784;2022-12-10T15:09:47;101016.72;;;5.00;59.72
48848;BME280;36611;51.638;5.784;2022-12-10T15:12:43;101024.94;;;4.96;59.49
48848;BME280;36611;51.638;5.784;2022-12-10T15:15:34;101024.13;;;4.94;59.69
48848;BME280;36611;51.638;5.784;2022-12-10T15:18:12;101025.06;;;4.93;59.48
48848;BME280;36611;51.638;5.784;2022-12-10T15:23:34;101029.59;;;4.91;59.53